sensor_id;sensor_type;location;lat;lon;timestamp;P1;durP1;ratioP1;P2;durP2;ratioP2
15496;SDS011;7850;52.204;5.942;2022-10-18T00:02:38;0.60;;;0.60;;
15496;SDS011;7850;52.204;5.942;2022-10-18T00:02:38;0.58;;;0.58;;
15496;SDS011;7850;52.204;5.942;2022-10-18T00:02:59;4.52;;;4.33;;
15496;SDS011;7850;52.204;5.942;2022-10-18T00:03:59;19.93;;;18.99;;
15496;SDS011;7850;52.204;5.942;2022-10-18T00:04:59;17.03;;;16.22;;
15496;SDS011;7850;52.204;5.942;2022-10-18T00:05:59;1.09;;;1.06;;
15496;SDS011;7850;52.204;5.942;2022-10-18T00:06:59;2.84;;;2.76;;
15496;SDS011;7850;52.204;5.942;2022-10-18T00:07:59;2.69;;;2.57;;
15496;SDS011;7850;52.204;5.942;2022-10-18T00:08:59;0.40;;;0.40;;
15496;SDS011;7850;52.204;5.942;2022-10-18T00:09:59;3.14;;;2.99;;
15496;SDS011;7850;52.204;5.942;2022-10-18T00:10:59;0.50;;;0.50;;
15496;SDS011;7850;52.204;5.942;2022-10-18T00:12:00;0.50;;;0.50;;
15496;SDS011;7850;52.204;5.942;2022-10-18T00:13:00;0.51;;;0.51;;
15496;SDS011;7850;52.204;5.942;2022-10-18T00:14:00;4.89;;;4.69;;
15496;SDS011;7850;52.204;5.942;2022-10-18T00:15:00;1.35;;;1.34;;
15496;SDS011;7850;52.204;5.942;2022-10-18T00:16:01;3.48;;;3.33;;
15496;SDS011;7850;52.204;5.942;2022-10-18T00:17:00;16.19;;;15.29;;
15496;SDS011;7850;52.204;5.942;2022-10-18T00:18:00;15.15;;;14.43;;
15496;SDS011;7850;52.204;5.942;2022-10-18T00:19:00;22.35;;;21.08;;
15496;SDS011;7850;52.204;5.942;2022-10-18T00:20:00;14.26;;;13.56;;
15496;SDS011;7850;52.204;5.942;2022-10-18T00:21:01;7.53;;;7.22;;
15496;SDS011;7850;52.204;5.942;2022-10-18T00:22:00;4.21;;;4.05;;
15496;SDS011;7850;52.204;5.942;2022-10-18T00:23:00;3.01;;;2.91;;
15496;SDS011;7850;52.204;5.942;2022-10-18T00:24:00;3.53;;;3.43;;
15496;SDS011;7850;52.204;5.942;2022-10-18T00:25:00;4.02;;;3.91;;
15496;SDS011;7850;52.204;5.942;2022-10-18T00:26:01;2.91;;;2.81;;
15496;SDS011;7850;52.204;5.942;2022-10-18T00:27:00;3.56;;;3.46;;
15496;SDS011;7850;52.204;5.942;2022-10-18T00:28:00;2.43;;;2.33;;
15496;SDS011;7850;52.204;5.942;2022-10-18T00:29:02;1.85;;;1.81;;
15496;SDS011;7850;52.204;5.942;2022-10-18T00:30:01;0.49;;;0.49;;
15496;SDS011;7850;52.204;5.942;2022-10-18T00:31:09;0.37;;;0.37;;
15496;SDS011;7850;52.204;5.942;2022-10-18T00:32:01;0.43;;;0.43;;
15496;SDS011;7850;52.204;5.942;2022-10-18T00:33:01;0.30;;;0.30;;
15496;SDS011;7850;52.204;5.942;2022-10-18T00:34:01;0.37;;;0.37;;
15496;SDS011;7850;52.204;5.942;2022-10-18T00:35:01;0.40;;;0.40;;
15496;SDS011;7850;52.204;5.942;2022-10-18T00:36:01;0.43;;;0.43;;
15496;SDS011;7850;52.204;5.942;2022-10-18T00:37:01;0.40;;;0.40;;
15496;SDS011;7850;52.204;5.942;2022-10-18T00:38:01;0.80;;;0.80;;
15496;SDS011;7850;52.204;5.942;2022-10-18T00:39:03;0.99;;;0.99;;
15496;SDS011;7850;52.204;5.942;2022-10-18T00:40:02;1.18;;;1.18;;
15496;SDS011;7850;52.204;5.942;2022-10-18T00:41:02;1.06;;;1.06;;
15496;SDS011;7850;52.204;5.942;2022-10-18T00:42:01;1.07;;;1.07;;
15496;SDS011;7850;52.204;5.942;2022-10-18T00:43:01;0.96;;;0.96;;
15496;SDS011;7850;52.204;5.942;2022-10-18T00:44:02;1.17;;;1.17;;
15496;SDS011;7850;52.204;5.942;2022-10-18T00:45:05;0.60;;;0.60;;
15496;SDS011;7850;52.204;5.942;2022-10-18T00:46:01;0.40;;;0.40;;
15496;SDS011;7850;52.204;5.942;2022-10-18T00:47:02;0.50;;;0.50;;
15496;SDS011;7850;52.204;5.942;2022-10-18T00:48:02;1.04;;;1.04;;
15496;SDS011;7850;52.204;5.942;2022-10-18T00:49:03;0.63;;;0.63;;
15496;SDS011;7850;52.204;5.942;2022-10-18T00:50:04;1.05;;;1.05;;
15496;SDS011;7850;52.204;5.942;2022-10-18T00:51:02;0.94;;;0.94;;
15496;SDS011;7850;52.204;5.942;2022-10-18T00:52:02;0.43;;;0.43;;
15496;SDS011;7850;52.204;5.942;2022-10-18T00:53:02;0.41;;;0.41;;
15496;SDS011;7850;52.204;5.942;2022-10-18T00:54:02;0.58;;;0.58;;
15496;SDS011;7850;52.204;5.942;2022-10-18T00:55:03;0.66;;;0.66;;
15496;SDS011;7850;52.204;5.942;2022-10-18T00:56:02;9.10;;;8.68;;
15496;SDS011;7850;52.204;5.942;2022-10-18T00:57:02;4.74;;;4.50;;
15496;SDS011;7850;52.204;5.942;2022-10-18T00:58:02;2.95;;;2.85;;
15496;SDS011;7850;52.204;5.942;2022-10-18T00:59:02;2.19;;;2.09;;
15496;SDS011;7850;52.204;5.942;2022-10-18T01:00:05;0.40;;;0.40;;
15496;SDS011;7850;52.204;5.942;2022-10-18T01:01:02;0.53;;;0.53;;
15496;SDS011;7850;52.204;5.942;2022-10-18T01:02:03;3.94;;;3.81;;
15496;SDS011;7850;52.204;5.942;2022-10-18T01:03:03;3.03;;;2.93;;
15496;SDS011;7850;52.204;5.942;2022-10-18T01:04:03;5.39;;;5.19;;
15496;SDS011;7850;52.204;5.942;2022-10-18T01:05:04;0.41;;;0.40;;
15496;SDS011;7850;52.204;5.942;2022-10-18T01:06:03;1.34;;;1.30;;
15496;SDS011;7850;52.204;5.942;2022-10-18T01:07:10;4.23;;;4.04;;
15496;SDS011;7850;52.204;5.942;2022-10-18T01:08:08;0.32;;;0.32;;
15496;SDS011;7850;52.204;5.942;2022-10-18T01:09:06;0.49;;;0.49;;
15496;SDS011;7850;52.204;5.942;2022-10-18T01:10:05;0.57;;;0.57;;
15496;SDS011;7850;52.204;5.942;2022-10-18T01:11:06;1.12;;;1.12;;
15496;SDS011;7850;52.204;5.942;2022-10-18T01:12:08;0.95;;;0.95;;
15496;SDS011;7850;52.204;5.942;2022-10-18T01:13:07;0.30;;;0.30;;
15496;SDS011;7850;52.204;5.942;2022-10-18T01:14:07;0.30;;;0.30;;
15496;SDS011;7850;52.204;5.942;2022-10-18T01:15:04;0.30;;;0.30;;
15496;SDS011;7850;52.204;5.942;2022-10-18T01:16:05;0.30;;;0.30;;
15496;SDS011;7850;52.204;5.942;2022-10-18T01:17:05;0.30;;;0.30;;
15496;SDS011;7850;52.204;5.942;2022-10-18T01:18:08;0.23;;;0.23;;
15496;SDS011;7850;52.204;5.942;2022-10-18T01:19:07;0.30;;;0.30;;
15496;SDS011;7850;52.204;5.942;2022-10-18T01:20:15;0.30;;;0.30;;
15496;SDS011;7850;52.204;5.942;2022-10-18T01:21:08;0.30;;;0.30;;
15496;SDS011;7850;52.204;5.942;2022-10-18T01:22:04;0.23;;;0.23;;
15496;SDS011;7850;52.204;5.942;2022-10-18T01:23:04;0.30;;;0.30;;
15496;SDS011;7850;52.204;5.942;2022-10-18T01:24:11;0.30;;;0.30;;
15496;SDS011;7850;52.204;5.942;2022-10-18T01:25:08;0.30;;;0.30;;
15496;SDS011;7850;52.204;5.942;2022-10-18T01:26:08;0.30;;;0.30;;
15496;SDS011;7850;52.204;5.942;2022-10-18T01:27:10;0.30;;;0.30;;
15496;SDS011;7850;52.204;5.942;2022-10-18T01:28:07;0.29;;;0.29;;
15496;SDS011;7850;52.204;5.942;2022-10-18T01:29:07;0.50;;;0.50;;
15496;SDS011;7850;52.204;5.942;2022-10-18T01:30:14;0.51;;;0.51;;
15496;SDS011;7850;52.204;5.942;2022-10-18T01:31:05;1.13;;;1.13;;
15496;SDS011;7850;52.204;5.942;2022-10-18T01:32:05;0.20;;;0.20;;
15496;SDS011;7850;52.204;5.942;2022-10-18T01:33:07;0.16;;;0.16;;
15496;SDS011;7850;52.204;5.942;2022-10-18T01:34:05;0.20;;;0.20;;
15496;SDS011;7850;52.204;5.942;2022-10-18T01:35:06;0.16;;;0.16;;
15496;SDS011;7850;52.204;5.942;2022-10-18T01:36:06;0.10;;;0.10;;
15496;SDS011;7850;52.204;5.942;2022-10-18T01:37:06;0.15;;;0.15;;
15496;SDS011;7850;52.204;5.942;2022-10-18T01:38:06;0.14;;;0.14;;
15496;SDS011;7850;52.204;5.942;2022-10-18T01:39:07;0.10;;;0.10;;
15496;SDS011;7850;52.204;5.942;2022-10-18T01:40:05;0.12;;;0.12;;
15496;SDS011;7850;52.204;5.942;2022-10-18T01:41:05;0.10;;;0.10;;
15496;SDS011;7850;52.204;5.942;2022-10-18T01:42:06;0.13;;;0.13;;
15496;SDS011;7850;52.204;5.942;2022-10-18T01:43:05;0.17;;;0.17;;
15496;SDS011;7850;52.204;5.942;2022-10-18T01:44:06;0.10;;;0.10;;
15496;SDS011;7850;52.204;5.942;2022-10-18T01:45:05;0.20;;;0.20;;
15496;SDS011;7850;52.204;5.942;2022-10-18T01:46:05;0.16;;;0.16;;
15496;SDS011;7850;52.204;5.942;2022-10-18T01:47:05;0.20;;;0.20;;
15496;SDS011;7850;52.204;5.942;2022-10-18T01:48:05;0.10;;;0.10;;
15496;SDS011;7850;52.204;5.942;2022-10-18T01:49:05;0.20;;;0.20;;
15496;SDS011;7850;52.204;5.942;2022-10-18T01:50:06;0.18;;;0.18;;
15496;SDS011;7850;52.204;5.942;2022-10-18T01:51:05;0.10;;;0.10;;
15496;SDS011;7850;52.204;5.942;2022-10-18T01:52:05;0.20;;;0.20;;
15496;SDS011;7850;52.204;5.942;2022-10-18T01:53:18;0.12;;;0.12;;
15496;SDS011;7850;52.204;5.942;2022-10-18T01:54:06;0.20;;;0.20;;
15496;SDS011;7850;52.204;5.942;2022-10-18T01:55:06;0.14;;;0.14;;
15496;SDS011;7850;52.204;5.942;2022-10-18T01:56:10;0.13;;;0.13;;
15496;SDS011;7850;52.204;5.942;2022-10-18T01:57:07;0.14;;;0.14;;
15496;SDS011;7850;52.204;5.942;2022-10-18T01:58:08;0.20;;;0.20;;
15496;SDS011;7850;52.204;5.942;2022-10-18T01:59:11;0.18;;;0.18;;
15496;SDS011;7850;52.204;5.942;2022-10-18T02:00:09;0.11;;;0.11;;
15496;SDS011;7850;52.204;5.942;2022-10-18T02:01:07;0.20;;;0.20;;
15496;SDS011;7850;52.204;5.942;2022-10-18T02:02:08;0.20;;;0.20;;
15496;SDS011;7850;52.204;5.942;2022-10-18T02:03:08;0.10;;;0.10;;
15496;SDS011;7850;52.204;5.942;2022-10-18T02:04:08;0.12;;;0.12;;
15496;SDS011;7850;52.204;5.942;2022-10-18T02:05:09;0.10;;;0.10;;
15496;SDS011;7850;52.204;5.942;2022-10-18T02:06:07;0.20;;;0.20;;
15496;SDS011;7850;52.204;5.942;2022-10-18T02:07:09;0.15;;;0.15;;
15496;SDS011;7850;52.204;5.942;2022-10-18T02:08:08;0.20;;;0.20;;
15496;SDS011;7850;52.204;5.942;2022-10-18T02:09:08;0.20;;;0.20;;
15496;SDS011;7850;52.204;5.942;2022-10-18T02:10:07;0.20;;;0.20;;
15496;SDS011;7850;52.204;5.942;2022-10-18T02:11:07;0.17;;;0.17;;
15496;SDS011;7850;52.204;5.942;2022-10-18T02:12:08;0.20;;;0.20;;
15496;SDS011;7850;52.204;5.942;2022-10-18T02:13:07;0.20;;;0.20;;
15496;SDS011;7850;52.204;5.942;2022-10-18T02:14:07;0.16;;;0.16;;
15496;SDS011;7850;52.204;5.942;2022-10-18T02:15:07;0.20;;;0.20;;
15496;SDS011;7850;52.204;5.942;2022-10-18T02:16:08;0.16;;;0.16;;
15496;SDS011;7850;52.204;5.942;2022-10-18T02:17:07;0.10;;;0.10;;
15496;SDS011;7850;52.204;5.942;2022-10-18T02:18:10;0.15;;;0.15;;
15496;SDS011;7850;52.204;5.942;2022-10-18T02:19:09;0.20;;;0.20;;
15496;SDS011;7850;52.204;5.942;2022-10-18T02:20:08;0.20;;;0.20;;
15496;SDS011;7850;52.204;5.942;2022-10-18T02:21:08;0.20;;;0.20;;
15496;SDS011;7850;52.204;5.942;2022-10-18T02:22:07;0.20;;;0.20;;
15496;SDS011;7850;52.204;5.942;2022-10-18T02:23:07;0.17;;;0.17;;
15496;SDS011;7850;52.204;5.942;2022-10-18T02:24:08;0.20;;;0.20;;
15496;SDS011;7850;52.204;5.942;2022-10-18T02:25:08;0.20;;;0.20;;
15496;SDS011;7850;52.204;5.942;2022-10-18T02:26:07;0.10;;;0.10;;
15496;SDS011;7850;52.204;5.942;2022-10-18T02:27:08;0.20;;;0.20;;
15496;SDS011;7850;52.204;5.942;2022-10-18T02:28:08;0.20;;;0.20;;
15496;SDS011;7850;52.204;5.942;2022-10-18T02:29:08;0.20;;;0.20;;
15496;SDS011;7850;52.204;5.942;2022-10-18T02:30:08;0.20;;;0.20;;
15496;SDS011;7850;52.204;5.942;2022-10-18T02:31:09;0.20;;;0.20;;
15496;SDS011;7850;52.204;5.942;2022-10-18T02:32:09;0.18;;;0.18;;
15496;SDS011;7850;52.204;5.942;2022-10-18T02:33:09;0.20;;;0.20;;
15496;SDS011;7850;52.204;5.942;2022-10-18T02:34:09;0.20;;;0.20;;
15496;SDS011;7850;52.204;5.942;2022-10-18T02:35:09;0.20;;;0.20;;
15496;SDS011;7850;52.204;5.942;2022-10-18T02:36:09;0.21;;;0.20;;
15496;SDS011;7850;52.204;5.942;2022-10-18T02:37:08;0.30;;;0.30;;
15496;SDS011;7850;52.204;5.942;2022-10-18T02:38:08;0.20;;;0.20;;
15496;SDS011;7850;52.204;5.942;2022-10-18T02:39:10;0.30;;;0.30;;
15496;SDS011;7850;52.204;5.942;2022-10-18T02:40:09;0.30;;;0.30;;
15496;SDS011;7850;52.204;5.942;2022-10-18T02:41:08;0.20;;;0.20;;
15496;SDS011;7850;52.204;5.942;2022-10-18T02:42:09;0.24;;;0.24;;
15496;SDS011;7850;52.204;5.942;2022-10-18T02:43:09;0.30;;;0.30;;
15496;SDS011;7850;52.204;5.942;2022-10-18T02:44:09;0.22;;;0.21;;
15496;SDS011;7850;52.204;5.942;2022-10-18T02:45:09;0.21;;;0.20;;
15496;SDS011;7850;52.204;5.942;2022-10-18T02:46:09;0.30;;;0.30;;
15496;SDS011;7850;52.204;5.942;2022-10-18T02:47:09;0.28;;;0.28;;
15496;SDS011;7850;52.204;5.942;2022-10-18T02:48:09;0.21;;;0.20;;
15496;SDS011;7850;52.204;5.942;2022-10-18T02:49:09;0.20;;;0.20;;
15496;SDS011;7850;52.204;5.942;2022-10-18T02:50:09;0.20;;;0.20;;
15496;SDS011;7850;52.204;5.942;2022-10-18T02:51:09;0.20;;;0.20;;
15496;SDS011;7850;52.204;5.942;2022-10-18T02:52:09;0.20;;;0.20;;
15496;SDS011;7850;52.204;5.942;2022-10-18T02:53:09;0.20;;;0.20;;
15496;SDS011;7850;52.204;5.942;2022-10-18T02:54:09;0.30;;;0.30;;
15496;SDS011;7850;52.204;5.942;2022-10-18T02:55:09;0.20;;;0.20;;
15496;SDS011;7850;52.204;5.942;2022-10-18T02:56:09;0.25;;;0.25;;
15496;SDS011;7850;52.204;5.942;2022-10-18T02:57:09;0.20;;;0.20;;
15496;SDS011;7850;52.204;5.942;2022-10-18T02:58:10;0.22;;;0.22;;
15496;SDS011;7850;52.204;5.942;2022-10-18T02:59:10;0.20;;;0.20;;
15496;SDS011;7850;52.204;5.942;2022-10-18T03:00:10;0.13;;;0.13;;
15496;SDS011;7850;52.204;5.942;2022-10-18T03:01:10;0.14;;;0.14;;
15496;SDS011;7850;52.204;5.942;2022-10-18T03:02:10;0.19;;;0.19;;
15496;SDS011;7850;52.204;5.942;2022-10-18T03:03:10;0.20;;;0.19;;
15496;SDS011;7850;52.204;5.942;2022-10-18T03:04:10;0.20;;;0.20;;
15496;SDS011;7850;52.204;5.942;2022-10-18T03:05:10;0.20;;;0.20;;
15496;SDS011;7850;52.204;5.942;2022-10-18T03:06:10;0.20;;;0.20;;
15496;SDS011;7850;52.204;5.942;2022-10-18T03:07:10;0.20;;;0.20;;
15496;SDS011;7850;52.204;5.942;2022-10-18T03:08:10;0.20;;;0.20;;
15496;SDS011;7850;52.204;5.942;2022-10-18T03:09:10;0.10;;;0.10;;
15496;SDS011;7850;52.204;5.942;2022-10-18T03:10:10;0.14;;;0.13;;
15496;SDS011;7850;52.204;5.942;2022-10-18T03:11:10;0.20;;;0.20;;
15496;SDS011;7850;52.204;5.942;2022-10-18T03:12:11;0.20;;;0.20;;
15496;SDS011;7850;52.204;5.942;2022-10-18T03:13:11;0.14;;;0.14;;
15496;SDS011;7850;52.204;5.942;2022-10-18T03:14:11;0.16;;;0.16;;
15496;SDS011;7850;52.204;5.942;2022-10-18T03:15:11;0.20;;;0.20;;
15496;SDS011;7850;52.204;5.942;2022-10-18T03:16:11;0.10;;;0.10;;
15496;SDS011;7850;52.204;5.942;2022-10-18T03:17:11;0.20;;;0.20;;
15496;SDS011;7850;52.204;5.942;2022-10-18T03:18:11;0.13;;;0.13;;
15496;SDS011;7850;52.204;5.942;2022-10-18T03:19:11;0.17;;;0.17;;
15496;SDS011;7850;52.204;5.942;2022-10-18T03:20:11;0.20;;;0.20;;
15496;SDS011;7850;52.204;5.942;2022-10-18T03:21:11;0.20;;;0.20;;
15496;SDS011;7850;52.204;5.942;2022-10-18T03:22:11;0.20;;;0.20;;
15496;SDS011;7850;52.204;5.942;2022-10-18T03:23:11;0.10;;;0.10;;
15496;SDS011;7850;52.204;5.942;2022-10-18T03:24:11;0.14;;;0.13;;
15496;SDS011;7850;52.204;5.942;2022-10-18T03:25:11;0.20;;;0.20;;
15496;SDS011;7850;52.204;5.942;2022-10-18T03:26:11;0.20;;;0.20;;
15496;SDS011;7850;52.204;5.942;2022-10-18T03:27:11;0.20;;;0.20;;
15496;SDS011;7850;52.204;5.942;2022-10-18T03:28:11;0.11;;;0.11;;
15496;SDS011;7850;52.204;5.942;2022-10-18T03:29:11;0.20;;;0.20;;
15496;SDS011;7850;52.204;5.942;2022-10-18T03:30:11;0.20;;;0.20;;
15496;SDS011;7850;52.204;5.942;2022-10-18T03:31:11;0.17;;;0.17;;
15496;SDS011;7850;52.204;5.942;2022-10-18T03:32:12;0.17;;;0.17;;
15496;SDS011;7850;52.204;5.942;2022-10-18T03:33:12;0.19;;;0.19;;
15496;SDS011;7850;52.204;5.942;2022-10-18T03:34:12;0.20;;;0.20;;
15496;SDS011;7850;52.204;5.942;2022-10-18T03:35:12;0.20;;;0.20;;
15496;SDS011;7850;52.204;5.942;2022-10-18T03:36:12;0.20;;;0.20;;
15496;SDS011;7850;52.204;5.942;2022-10-18T03:37:12;0.18;;;0.17;;
15496;SDS011;7850;52.204;5.942;2022-10-18T03:38:12;0.20;;;0.20;;
15496;SDS011;7850;52.204;5.942;2022-10-18T03:39:12;0.16;;;0.16;;
15496;SDS011;7850;52.204;5.942;2022-10-18T03:40:12;0.13;;;0.12;;
15496;SDS011;7850;52.204;5.942;2022-10-18T03:41:13;0.20;;;0.20;;
15496;SDS011;7850;52.204;5.942;2022-10-18T03:42:12;0.20;;;0.20;;
15496;SDS011;7850;52.204;5.942;2022-10-18T03:43:12;0.20;;;0.20;;
15496;SDS011;7850;52.204;5.942;2022-10-18T03:44:12;0.12;;;0.12;;
15496;SDS011;7850;52.204;5.942;2022-10-18T03:45:12;0.14;;;0.13;;
15496;SDS011;7850;52.204;5.942;2022-10-18T03:46:12;0.20;;;0.20;;
15496;SDS011;7850;52.204;5.942;2022-10-18T03:47:13;0.20;;;0.20;;
15496;SDS011;7850;52.204;5.942;2022-10-18T03:48:13;0.20;;;0.20;;
15496;SDS011;7850;52.204;5.942;2022-10-18T03:49:13;0.20;;;0.19;;
15496;SDS011;7850;52.204;5.942;2022-10-18T03:50:13;0.20;;;0.20;;
15496;SDS011;7850;52.204;5.942;2022-10-18T03:51:13;0.13;;;0.13;;
15496;SDS011;7850;52.204;5.942;2022-10-18T03:52:13;0.20;;;0.20;;
15496;SDS011;7850;52.204;5.942;2022-10-18T03:53:13;0.20;;;0.20;;
15496;SDS011;7850;52.204;5.942;2022-10-18T03:54:13;0.18;;;0.17;;
15496;SDS011;7850;52.204;5.942;2022-10-18T03:55:13;0.20;;;0.20;;
15496;SDS011;7850;52.204;5.942;2022-10-18T03:56:13;0.20;;;0.20;;
15496;SDS011;7850;52.204;5.942;2022-10-18T03:57:13;0.20;;;0.20;;
15496;SDS011;7850;52.204;5.942;2022-10-18T03:58:13;0.20;;;0.20;;
15496;SDS011;7850;52.204;5.942;2022-10-18T03:59:13;0.20;;;0.20;;
15496;SDS011;7850;52.204;5.942;2022-10-18T04:00:13;0.20;;;0.20;;
15496;SDS011;7850;52.204;5.942;2022-10-18T04:01:14;0.20;;;0.20;;
15496;SDS011;7850;52.204;5.942;2022-10-18T04:02:14;0.20;;;0.20;;
15496;SDS011;7850;52.204;5.942;2022-10-18T04:03:14;0.20;;;0.20;;
15496;SDS011;7850;52.204;5.942;2022-10-18T04:04:14;0.20;;;0.20;;
15496;SDS011;7850;52.204;5.942;2022-10-18T04:05:14;0.20;;;0.20;;
15496;SDS011;7850;52.204;5.942;2022-10-18T04:06:14;0.20;;;0.20;;
15496;SDS011;7850;52.204;5.942;2022-10-18T04:07:14;0.20;;;0.20;;
15496;SDS011;7850;52.204;5.942;2022-10-18T04:08:14;0.20;;;0.20;;
15496;SDS011;7850;52.204;5.942;2022-10-18T04:09:14;0.20;;;0.20;;
15496;SDS011;7850;52.204;5.942;2022-10-18T04:10:14;0.20;;;0.20;;
15496;SDS011;7850;52.204;5.942;2022-10-18T04:11:14;0.20;;;0.20;;
15496;SDS011;7850;52.204;5.942;2022-10-18T04:12:14;0.20;;;0.20;;
15496;SDS011;7850;52.204;5.942;2022-10-18T04:13:14;0.20;;;0.20;;
15496;SDS011;7850;52.204;5.942;2022-10-18T04:14:14;0.20;;;0.20;;
15496;SDS011;7850;52.204;5.942;2022-10-18T04:15:15;0.20;;;0.20;;
15496;SDS011;7850;52.204;5.942;2022-10-18T04:16:15;0.18;;;0.17;;
15496;SDS011;7850;52.204;5.942;2022-10-18T04:17:15;0.20;;;0.20;;
15496;SDS011;7850;52.204;5.942;2022-10-18T04:18:15;0.20;;;0.20;;
15496;SDS011;7850;52.204;5.942;2022-10-18T04:19:15;0.20;;;0.20;;
15496;SDS011;7850;52.204;5.942;2022-10-18T04:20:15;0.20;;;0.20;;
15496;SDS011;7850;52.204;5.942;2022-10-18T04:21:15;0.20;;;0.20;;
15496;SDS011;7850;52.204;5.942;2022-10-18T04:22:15;0.11;;;0.11;;
15496;SDS011;7850;52.204;5.942;2022-10-18T04:23:15;0.20;;;0.20;;
15496;SDS011;7850;52.204;5.942;2022-10-18T04:24:15;0.20;;;0.20;;
15496;SDS011;7850;52.204;5.942;2022-10-18T04:25:15;0.20;;;0.20;;
15496;SDS011;7850;52.204;5.942;2022-10-18T04:26:15;0.20;;;0.20;;
15496;SDS011;7850;52.204;5.942;2022-10-18T04:27:15;0.20;;;0.20;;
15496;SDS011;7850;52.204;5.942;2022-10-18T04:28:15;0.20;;;0.20;;
15496;SDS011;7850;52.204;5.942;2022-10-18T04:29:15;0.20;;;0.20;;
15496;SDS011;7850;52.204;5.942;2022-10-18T04:30:16;0.14;;;0.14;;
15496;SDS011;7850;52.204;5.942;2022-10-18T04:31:16;0.13;;;0.12;;
15496;SDS011;7850;52.204;5.942;2022-10-18T04:32:16;0.15;;;0.15;;
15496;SDS011;7850;52.204;5.942;2022-10-18T04:33:16;0.15;;;0.15;;
15496;SDS011;7850;52.204;5.942;2022-10-18T04:34:16;0.18;;;0.18;;
15496;SDS011;7850;52.204;5.942;2022-10-18T04:35:16;0.20;;;0.20;;
15496;SDS011;7850;52.204;5.942;2022-10-18T04:36:16;0.14;;;0.14;;
15496;SDS011;7850;52.204;5.942;2022-10-18T04:37:16;0.20;;;0.20;;
15496;SDS011;7850;52.204;5.942;2022-10-18T04:38:16;0.17;;;0.17;;
15496;SDS011;7850;52.204;5.942;2022-10-18T04:39:16;0.17;;;0.17;;
15496;SDS011;7850;52.204;5.942;2022-10-18T04:40:16;0.16;;;0.16;;
15496;SDS011;7850;52.204;5.942;2022-10-18T04:41:16;0.13;;;0.12;;
15496;SDS011;7850;52.204;5.942;2022-10-18T04:42:16;0.14;;;0.13;;
15496;SDS011;7850;52.204;5.942;2022-10-18T04:43:16;0.18;;;0.17;;
15496;SDS011;7850;52.204;5.942;2022-10-18T04:44:16;0.20;;;0.20;;
15496;SDS011;7850;52.204;5.942;2022-10-18T04:45:16;0.24;;;0.23;;
15496;SDS011;7850;52.204;5.942;2022-10-18T04:46:16;0.20;;;0.20;;
15496;SDS011;7850;52.204;5.942;2022-10-18T04:47:17;0.14;;;0.14;;
15496;SDS011;7850;52.204;5.942;2022-10-18T04:48:17;0.20;;;0.20;;
15496;SDS011;7850;52.204;5.942;2022-10-18T04:49:17;0.20;;;0.20;;
15496;SDS011;7850;52.204;5.942;2022-10-18T04:50:17;0.11;;;0.11;;
15496;SDS011;7850;52.204;5.942;2022-10-18T04:51:17;0.10;;;0.10;;
15496;SDS011;7850;52.204;5.942;2022-10-18T04:52:17;0.20;;;0.20;;
15496;SDS011;7850;52.204;5.942;2022-10-18T04:53:17;0.19;;;0.18;;
15496;SDS011;7850;52.204;5.942;2022-10-18T04:54:17;0.20;;;0.20;;
15496;SDS011;7850;52.204;5.942;2022-10-18T04:55:17;0.10;;;0.10;;
15496;SDS011;7850;52.204;5.942;2022-10-18T04:56:17;0.14;;;0.13;;
15496;SDS011;7850;52.204;5.942;2022-10-18T04:57:17;0.10;;;0.10;;
15496;SDS011;7850;52.204;5.942;2022-10-18T04:58:17;0.17;;;0.17;;
15496;SDS011;7850;52.204;5.942;2022-10-18T04:59:17;0.18;;;0.18;;
15496;SDS011;7850;52.204;5.942;2022-10-18T05:00:17;0.10;;;0.10;;
15496;SDS011;7850;52.204;5.942;2022-10-18T05:01:17;0.11;;;0.10;;
15496;SDS011;7850;52.204;5.942;2022-10-18T05:02:18;0.10;;;0.10;;
15496;SDS011;7850;52.204;5.942;2022-10-18T05:03:18;0.15;;;0.15;;
15496;SDS011;7850;52.204;5.942;2022-10-18T05:04:18;0.20;;;0.20;;
15496;SDS011;7850;52.204;5.942;2022-10-18T05:05:18;0.14;;;0.14;;
15496;SDS011;7850;52.204;5.942;2022-10-18T05:06:18;0.19;;;0.18;;
15496;SDS011;7850;52.204;5.942;2022-10-18T05:07:18;0.18;;;0.17;;
15496;SDS011;7850;52.204;5.942;2022-10-18T05:08:18;0.20;;;0.20;;
15496;SDS011;7850;52.204;5.942;2022-10-18T05:09:18;0.10;;;0.10;;
15496;SDS011;7850;52.204;5.942;2022-10-18T05:10:18;0.19;;;0.18;;
15496;SDS011;7850;52.204;5.942;2022-10-18T05:11:18;0.15;;;0.15;;
15496;SDS011;7850;52.204;5.942;2022-10-18T05:12:18;0.13;;;0.13;;
15496;SDS011;7850;52.204;5.942;2022-10-18T05:13:18;0.20;;;0.20;;
15496;SDS011;7850;52.204;5.942;2022-10-18T05:14:18;0.14;;;0.14;;
15496;SDS011;7850;52.204;5.942;2022-10-18T05:15:18;0.10;;;0.10;;
15496;SDS011;7850;52.204;5.942;2022-10-18T05:16:18;0.10;;;0.10;;
15496;SDS011;7850;52.204;5.942;2022-10-18T05:17:19;0.18;;;0.18;;
15496;SDS011;7850;52.204;5.942;2022-10-18T05:18:19;0.10;;;0.10;;
15496;SDS011;7850;52.204;5.942;2022-10-18T05:19:19;0.10;;;0.10;;
15496;SDS011;7850;52.204;5.942;2022-10-18T05:20:19;0.20;;;0.20;;
15496;SDS011;7850;52.204;5.942;2022-10-18T05:21:19;0.10;;;0.10;;
15496;SDS011;7850;52.204;5.942;2022-10-18T05:22:19;0.15;;;0.14;;
15496;SDS011;7850;52.204;5.942;2022-10-18T05:23:19;0.20;;;0.20;;
15496;SDS011;7850;52.204;5.942;2022-10-18T05:24:19;0.20;;;0.20;;
15496;SDS011;7850;52.204;5.942;2022-10-18T05:25:19;0.20;;;0.20;;
15496;SDS011;7850;52.204;5.942;2022-10-18T05:26:19;0.18;;;0.18;;
15496;SDS011;7850;52.204;5.942;2022-10-18T05:27:19;0.20;;;0.20;;
15496;SDS011;7850;52.204;5.942;2022-10-18T05:28:19;0.10;;;0.10;;
15496;SDS011;7850;52.204;5.942;2022-10-18T05:29:19;0.14;;;0.14;;
15496;SDS011;7850;52.204;5.942;2022-10-18T05:30:19;0.20;;;0.20;;
15496;SDS011;7850;52.204;5.942;2022-10-18T05:31:19;0.20;;;0.20;;
15496;SDS011;7850;52.204;5.942;2022-10-18T05:32:19;0.10;;;0.10;;
15496;SDS011;7850;52.204;5.942;2022-10-18T05:33:19;0.10;;;0.10;;
15496;SDS011;7850;52.204;5.942;2022-10-18T05:34:20;0.10;;;0.10;;
15496;SDS011;7850;52.204;5.942;2022-10-18T05:35:20;0.19;;;0.19;;
15496;SDS011;7850;52.204;5.942;2022-10-18T05:36:20;0.11;;;0.10;;
15496;SDS011;7850;52.204;5.942;2022-10-18T05:37:20;0.16;;;0.16;;
15496;SDS011;7850;52.204;5.942;2022-10-18T05:38:20;0.19;;;0.18;;
15496;SDS011;7850;52.204;5.942;2022-10-18T05:39:20;0.10;;;0.10;;
15496;SDS011;7850;52.204;5.942;2022-10-18T05:40:20;0.19;;;0.19;;
15496;SDS011;7850;52.204;5.942;2022-10-18T05:41:20;0.10;;;0.10;;
15496;SDS011;7850;52.204;5.942;2022-10-18T05:42:20;0.20;;;0.20;;
15496;SDS011;7850;52.204;5.942;2022-10-18T05:43:20;0.15;;;0.15;;
15496;SDS011;7850;52.204;5.942;2022-10-18T05:44:20;0.10;;;0.10;;
15496;SDS011;7850;52.204;5.942;2022-10-18T05:45:20;0.19;;;0.19;;
15496;SDS011;7850;52.204;5.942;2022-10-18T05:46:20;0.13;;;0.12;;
15496;SDS011;7850;52.204;5.942;2022-10-18T05:47:21;0.10;;;0.10;;
15496;SDS011;7850;52.204;5.942;2022-10-18T05:48:21;0.19;;;0.19;;
15496;SDS011;7850;52.204;5.942;2022-10-18T05:49:21;0.34;;;0.33;;
15496;SDS011;7850;52.204;5.942;2022-10-18T05:50:21;0.58;;;0.58;;
15496;SDS011;7850;52.204;5.942;2022-10-18T05:51:21;0.90;;;0.89;;
15496;SDS011;7850;52.204;5.942;2022-10-18T05:52:21;1.08;;;1.08;;
15496;SDS011;7850;52.204;5.942;2022-10-18T05:53:21;0.20;;;0.20;;
15496;SDS011;7850;52.204;5.942;2022-10-18T05:54:21;0.25;;;0.25;;
15496;SDS011;7850;52.204;5.942;2022-10-18T05:55:21;0.40;;;0.40;;
15496;SDS011;7850;52.204;5.942;2022-10-18T05:56:21;0.47;;;0.47;;
15496;SDS011;7850;52.204;5.942;2022-10-18T05:57:21;0.32;;;0.32;;
15496;SDS011;7850;52.204;5.942;2022-10-18T05:58:21;0.30;;;0.30;;
15496;SDS011;7850;52.204;5.942;2022-10-18T05:59:21;0.62;;;0.61;;
15496;SDS011;7850;52.204;5.942;2022-10-18T06:00:21;1.14;;;1.13;;
15496;SDS011;7850;52.204;5.942;2022-10-18T06:01:22;1.47;;;1.46;;
15496;SDS011;7850;52.204;5.942;2022-10-18T06:02:22;2.88;;;2.78;;
15496;SDS011;7850;52.204;5.942;2022-10-18T06:03:22;0.72;;;0.72;;
15496;SDS011;7850;52.204;5.942;2022-10-18T06:04:22;0.87;;;0.86;;
15496;SDS011;7850;52.204;5.942;2022-10-18T06:05:22;0.27;;;0.27;;
15496;SDS011;7850;52.204;5.942;2022-10-18T06:06:22;0.24;;;0.24;;
15496;SDS011;7850;52.204;5.942;2022-10-18T06:07:22;0.20;;;0.20;;